sensor_id;sensor_type;location;lat;lon;timestamp;P1;durP1;ratioP1;P2;durP2;ratioP2
73791;SDS011;62122;41.112;16.694;2022-07-18T00:01:09;10.77;;;7.70;;
73791;SDS011;62122;41.112;16.694;2022-07-18T00:04:13;9.73;;;7.30;;
73791;SDS011;62122;41.112;16.694;2022-07-18T00:07:17;9.18;;;7.63;;
73791;SDS011;62122;41.112;16.694;2022-07-18T00:10:21;9.38;;;7.78;;
73791;SDS011;62122;41.112;16.694;2022-07-18T00:13:24;9.73;;;7.45;;
73791;SDS011;62122;41.112;16.694;2022-07-18T00:16:28;8.63;;;7.65;;
73791;SDS011;62122;41.112;16.694;2022-07-18T00:19:32;9.93;;;7.35;;
73791;SDS011;62122;41.112;16.694;2022-07-18T00:22:36;14.07;;;7.63;;
73791;SDS011;62122;41.112;16.694;2022-07-18T00:25:40;9.10;;;7.20;;
73791;SDS011;62122;41.112;16.694;2022-07-18T00:28:44;9.98;;;7.50;;
73791;SDS011;62122;41.112;16.694;2022-07-18T00:31:48;12.38;;;7.38;;
73791;SDS011;62122;41.112;16.694;2022-07-18T00:34:52;9.68;;;7.97;;
73791;SDS011;62122;41.112;16.694;2022-07-18T00:37:56;9.43;;;7.28;;
73791;SDS011;62122;41.112;16.694;2022-07-18T00:41:00;11.60;;;8.10;;
73791;SDS011;62122;41.112;16.694;2022-07-18T00:44:04;11.60;;;8.07;;
73791;SDS011;62122;41.112;16.694;2022-07-18T00:47:08;12.43;;;8.82;;
73791;SDS011;62122;41.112;16.694;2022-07-18T00:50:12;13.75;;;8.52;;
73791;SDS011;62122;41.112;16.694;2022-07-18T00:53:17;10.73;;;8.95;;
73791;SDS011;62122;41.112;16.694;2022-07-18T00:56:20;11.85;;;8.13;;
73791;SDS011;62122;41.112;16.694;2022-07-18T00:59:25;10.75;;;8.65;;
73791;SDS011;62122;41.112;16.694;2022-07-18T01:02:50;10.90;;;8.38;;
73791;SDS011;62122;41.112;16.694;2022-07-18T01:05:54;12.82;;;9.82;;
73791;SDS011;62122;41.112;16.694;2022-07-18T01:08:57;13.00;;;9.20;;
73791;SDS011;62122;41.112;16.694;2022-07-18T01:12:02;9.75;;;8.63;;
73791;SDS011;62122;41.112;16.694;2022-07-18T01:15:07;10.65;;;9.43;;
73791;SDS011;62122;41.112;16.694;2022-07-18T01:18:11;10.90;;;9.70;;
73791;SDS011;62122;41.112;16.694;2022-07-18T01:21:16;11.65;;;9.38;;
73791;SDS011;62122;41.112;16.694;2022-07-18T01:24:20;11.77;;;9.15;;
73791;SDS011;62122;41.112;16.694;2022-07-18T01:27:24;10.90;;;9.18;;
73791;SDS011;62122;41.112;16.694;2022-07-18T01:30:28;12.55;;;9.23;;
73791;SDS011;62122;41.112;16.694;2022-07-18T01:33:32;10.93;;;9.63;;
73791;SDS011;62122;41.112;16.694;2022-07-18T01:36:37;12.82;;;10.30;;
73791;SDS011;62122;41.112;16.694;2022-07-18T01:39:44;11.73;;;10.00;;
73791;SDS011;62122;41.112;16.694;2022-07-18T01:42:49;11.50;;;9.82;;
73791;SDS011;62122;41.112;16.694;2022-07-18T01:45:53;13.02;;;10.50;;
73791;SDS011;62122;41.112;16.694;2022-07-18T01:49:00;11.80;;;10.00;;
73791;SDS011;62122;41.112;16.694;2022-07-18T01:52:04;15.18;;;9.57;;
73791;SDS011;62122;41.112;16.694;2022-07-18T01:55:09;15.02;;;10.23;;
73791;SDS011;62122;41.112;16.694;2022-07-18T01:58:13;10.98;;;9.57;;
73791;SDS011;62122;41.112;16.694;2022-07-18T02:01:17;11.90;;;9.80;;
73791;SDS011;62122;41.112;16.694;2022-07-18T02:04:20;12.63;;;9.95;;
73791;SDS011;62122;41.112;16.694;2022-07-18T02:07:44;13.90;;;9.60;;
73791;SDS011;62122;41.112;16.694;2022-07-18T02:10:48;13.23;;;9.48;;
73791;SDS011;62122;41.112;16.694;2022-07-18T02:13:53;12.77;;;10.38;;
73791;SDS011;62122;41.112;16.694;2022-07-18T02:16:56;11.05;;;9.32;;
73791;SDS011;62122;41.112;16.694;2022-07-18T02:20:00;12.30;;;9.88;;
73791;SDS011;62122;41.112;16.694;2022-07-18T02:23:04;10.07;;;8.82;;
73791;SDS011;62122;41.112;16.694;2022-07-18T02:26:09;12.68;;;9.75;;
73791;SDS011;62122;41.112;16.694;2022-07-18T02:29:13;10.95;;;9.70;;
73791;SDS011;62122;41.112;16.694;2022-07-18T02:32:17;11.38;;;9.52;;
73791;SDS011;62122;41.112;16.694;2022-07-18T02:35:21;11.65;;;8.90;;
73791;SDS011;62122;41.112;16.694;2022-07-18T02:38:25;10.38;;;9.27;;
73791;SDS011;62122;41.112;16.694;2022-07-18T02:41:29;10.88;;;9.20;;
73791;SDS011;62122;41.112;16.694;2022-07-18T02:44:33;10.05;;;9.05;;
73791;SDS011;62122;41.112;16.694;2022-07-18T02:47:41;11.27;;;9.60;;
73791;SDS011;62122;41.112;16.694;2022-07-18T02:50:51;11.27;;;8.90;;
73791;SDS011;62122;41.112;16.694;2022-07-18T02:53:55;10.45;;;9.35;;
73791;SDS011;62122;41.112;16.694;2022-07-18T02:56:59;10.32;;;9.23;;
73791;SDS011;62122;41.112;16.694;2022-07-18T03:00:03;9.77;;;8.68;;
73791;SDS011;62122;41.112;16.694;2022-07-18T03:03:08;10.40;;;9.23;;
73791;SDS011;62122;41.112;16.694;2022-07-18T03:06:12;10.38;;;9.00;;
73791;SDS011;62122;41.112;16.694;2022-07-18T03:09:16;10.40;;;8.73;;
73791;SDS011;62122;41.112;16.694;2022-07-18T03:12:21;11.93;;;8.68;;
73791;SDS011;62122;41.112;16.694;2022-07-18T03:15:25;12.25;;;9.15;;
73791;SDS011;62122;41.112;16.694;2022-07-18T03:18:29;11.18;;;9.10;;
73791;SDS011;62122;41.112;16.694;2022-07-18T03:21:33;12.30;;;8.68;;
73791;SDS011;62122;41.112;16.694;2022-07-18T03:24:37;11.35;;;9.00;;
73791;SDS011;62122;41.112;16.694;2022-07-18T03:27:41;14.55;;;9.07;;
73791;SDS011;62122;41.112;16.694;2022-07-18T03:30:45;11.77;;;8.60;;
73791;SDS011;62122;41.112;16.694;2022-07-18T03:33:49;11.65;;;8.88;;
73791;SDS011;62122;41.112;16.694;2022-07-18T03:36:53;27.63;;;11.70;;
73791;SDS011;62122;41.112;16.694;2022-07-18T03:39:57;11.30;;;8.93;;
73791;SDS011;62122;41.112;16.694;2022-07-18T03:43:01;15.75;;;9.35;;
73791;SDS011;62122;41.112;16.694;2022-07-18T03:46:05;10.80;;;8.65;;
73791;SDS011;62122;41.112;16.694;2022-07-18T03:49:10;17.42;;;9.65;;
73791;SDS011;62122;41.112;16.694;2022-07-18T03:52:14;15.30;;;9.52;;
73791;SDS011;62122;41.112;16.694;2022-07-18T03:55:18;16.33;;;8.60;;
73791;SDS011;62122;41.112;16.694;2022-07-18T03:58:22;14.48;;;9.40;;
73791;SDS011;62122;41.112;16.694;2022-07-18T04:01:25;13.18;;;9.45;;
73791;SDS011;62122;41.112;16.694;2022-07-18T04:04:29;13.32;;;8.70;;
73791;SDS011;62122;41.112;16.694;2022-07-18T04:07:33;15.13;;;9.77;;
73791;SDS011;62122;41.112;16.694;2022-07-18T04:10:37;15.52;;;10.73;;
73791;SDS011;62122;41.112;16.694;2022-07-18T04:13:43;15.95;;;9.60;;
73791;SDS011;62122;41.112;16.694;2022-07-18T04:16:48;12.50;;;9.48;;
73791;SDS011;62122;41.112;16.694;2022-07-18T04:19:52;12.60;;;9.30;;
73791;SDS011;62122;41.112;16.694;2022-07-18T04:23:06;15.57;;;9.60;;
73791;SDS011;62122;41.112;16.694;2022-07-18T04:26:11;15.05;;;9.80;;
73791;SDS011;62122;41.112;16.694;2022-07-18T04:29:16;16.50;;;9.93;;
73791;SDS011;62122;41.112;16.694;2022-07-18T04:32:20;15.23;;;10.20;;
73791;SDS011;62122;41.112;16.694;2022-07-18T04:35:24;13.93;;;9.40;;
73791;SDS011;62122;41.112;16.694;2022-07-18T04:38:28;12.15;;;9.57;;
73791;SDS011;62122;41.112;16.694;2022-07-18T04:41:37;20.33;;;10.02;;
73791;SDS011;62122;41.112;16.694;2022-07-18T04:44:41;13.82;;;9.68;;
73791;SDS011;62122;41.112;16.694;2022-07-18T04:47:45;14.13;;;10.30;;
73791;SDS011;62122;41.112;16.694;2022-07-18T04:50:49;12.90;;;8.90;;
73791;SDS011;62122;41.112;16.694;2022-07-18T04:53:53;16.52;;;9.20;;
73791;SDS011;62122;41.112;16.694;2022-07-18T04:56:58;15.77;;;9.07;;
73791;SDS011;62122;41.112;16.694;2022-07-18T05:00:06;12.13;;;8.45;;
73791;SDS011;62122;41.112;16.694;2022-07-18T05:03:13;13.20;;;9.57;;
73791;SDS011;62122;41.112;16.694;2022-07-18T05:06:17;13.70;;;9.27;;
73791;SDS011;62122;41.112;16.694;2022-07-18T05:09:21;12.95;;;8.68;;
73791;SDS011;62122;41.112;16.694;2022-07-18T05:12:25;15.27;;;9.13;;
73791;SDS011;62122;41.112;16.694;2022-07-18T05:15:28;16.67;;;9.43;;
73791;SDS011;62122;41.112;16.694;2022-07-18T05:18:32;11.07;;;8.73;;
73791;SDS011;62122;41.112;16.694;2022-07-18T05:21:36;11.80;;;8.68;;
73791;SDS011;62122;41.112;16.694;2022-07-18T05:24:40;13.02;;;8.35;;
73791;SDS011;62122;41.112;16.694;2022-07-18T05:27:44;21.48;;;8.68;;
73791;SDS011;62122;41.112;16.694;2022-07-18T05:30:47;13.77;;;8.90;;
73791;SDS011;62122;41.112;16.694;2022-07-18T05:33:51;14.85;;;9.35;;
73791;SDS011;62122;41.112;16.694;2022-07-18T05:36:55;15.40;;;8.35;;
73791;SDS011;62122;41.112;16.694;2022-07-18T05:39:59;12.75;;;8.95;;
73791;SDS011;62122;41.112;16.694;2022-07-18T05:43:03;16.67;;;9.57;;
73791;SDS011;62122;41.112;16.694;2022-07-18T05:46:07;16.87;;;8.77;;
73791;SDS011;62122;41.112;16.694;2022-07-18T05:49:11;19.35;;;9.10;;
73791;SDS011;62122;41.112;16.694;2022-07-18T05:52:16;16.25;;;8.52;;
73791;SDS011;62122;41.112;16.694;2022-07-18T05:55:19;15.57;;;8.60;;
73791;SDS011;62122;41.112;16.694;2022-07-18T05:58:24;22.52;;;9.27;;
73791;SDS011;62122;41.112;16.694;2022-07-18T06:01:28;17.93;;;9.47;;
73791;SDS011;62122;41.112;16.694;2022-07-18T06:04:33;21.63;;;9.70;;
73791;SDS011;62122;41.112;16.694;2022-07-18T06:07:37;16.88;;;8.07;;
73791;SDS011;62122;41.112;16.694;2022-07-18T06:10:41;18.88;;;9.10;;
73791;SDS011;62122;41.112;16.694;2022-07-18T06:13:48;16.75;;;8.88;;
73791;SDS011;62122;41.112;16.694;2022-07-18T06:16:52;16.90;;;8.20;;
73791;SDS011;62122;41.112;16.694;2022-07-18T06:19:56;13.75;;;8.48;;
73791;SDS011;62122;41.112;16.694;2022-07-18T06:23:00;19.02;;;8.55;;
73791;SDS011;62122;41.112;16.694;2022-07-18T06:26:04;13.88;;;8.27;;
73791;SDS011;62122;41.112;16.694;2022-07-18T06:29:08;16.40;;;8.20;;
73791;SDS011;62122;41.112;16.694;2022-07-18T06:32:13;15.63;;;8.70;;
73791;SDS011;62122;41.112;16.694;2022-07-18T06:35:18;12.73;;;9.15;;
73791;SDS011;62122;41.112;16.694;2022-07-18T06:38:22;13.77;;;8.82;;
73791;SDS011;62122;41.112;16.694;2022-07-18T06:41:26;18.70;;;9.40;;
73791;SDS011;62122;41.112;16.694;2022-07-18T06:44:29;14.68;;;8.43;;
73791;SDS011;62122;41.112;16.694;2022-07-18T06:47:33;21.83;;;8.90;;
73791;SDS011;62122;41.112;16.694;2022-07-18T06:50:37;16.55;;;8.40;;
73791;SDS011;62122;41.112;16.694;2022-07-18T06:53:41;15.48;;;8.10;;
73791;SDS011;62122;41.112;16.694;2022-07-18T06:56:45;15.35;;;8.00;;
73791;SDS011;62122;41.112;16.694;2022-07-18T06:59:49;14.70;;;7.78;;
73791;SDS011;62122;41.112;16.694;2022-07-18T07:02:53;12.40;;;7.50;;
73791;SDS011;62122;41.112;16.694;2022-07-18T07:05:58;14.32;;;7.57;;
73791;SDS011;62122;41.112;16.694;2022-07-18T07:09:02;16.25;;;7.70;;
73791;SDS011;62122;41.112;16.694;2022-07-18T07:12:06;17.20;;;7.22;;
73791;SDS011;62122;41.112;16.694;2022-07-18T07:15:10;14.25;;;7.00;;
73791;SDS011;62122;41.112;16.694;2022-07-18T07:18:14;14.60;;;7.20;;
73791;SDS011;62122;41.112;16.694;2022-07-18T07:21:18;11.27;;;7.00;;
73791;SDS011;62122;41.112;16.694;2022-07-18T07:24:22;14.77;;;6.63;;
73791;SDS011;62122;41.112;16.694;2022-07-18T07:27:26;11.48;;;6.55;;
73791;SDS011;62122;41.112;16.694;2022-07-18T07:30:30;11.70;;;6.25;;
73791;SDS011;62122;41.112;16.694;2022-07-18T07:33:36;10.23;;;6.67;;
73791;SDS011;62122;41.112;16.694;2022-07-18T07:36:40;10.48;;;6.70;;
73791;SDS011;62122;41.112;16.694;2022-07-18T07:39:44;9.73;;;6.30;;
73791;SDS011;62122;41.112;16.694;2022-07-18T07:42:48;11.10;;;6.38;;
73791;SDS011;62122;41.112;16.694;2022-07-18T07:45:52;8.38;;;6.00;;
73791;SDS011;62122;41.112;16.694;2022-07-18T07:48:59;10.70;;;5.87;;
73791;SDS011;62122;41.112;16.694;2022-07-18T07:52:04;9.05;;;6.05;;
73791;SDS011;62122;41.112;16.694;2022-07-18T07:55:10;8.02;;;6.45;;
73791;SDS011;62122;41.112;16.694;2022-07-18T07:58:13;9.80;;;6.35;;
73791;SDS011;62122;41.112;16.694;2022-07-18T08:01:17;9.32;;;6.15;;
73791;SDS011;62122;41.112;16.694;2022-07-18T08:04:22;8.07;;;6.10;;
73791;SDS011;62122;41.112;16.694;2022-07-18T08:07:27;8.43;;;6.15;;
73791;SDS011;62122;41.112;16.694;2022-07-18T08:10:31;11.77;;;6.22;;
73791;SDS011;62122;41.112;16.694;2022-07-18T08:13:35;11.38;;;6.13;;
73791;SDS011;62122;41.112;16.694;2022-07-18T10:55:55;8.68;;;6.05;;
73791;SDS011;62122;41.112;16.694;2022-07-18T10:58:59;10.18;;;6.43;;
73791;SDS011;62122;41.112;16.694;2022-07-18T11:02:17;11.90;;;6.27;;
73791;SDS011;62122;41.112;16.694;2022-07-18T11:05:44;9.70;;;6.40;;
73791;SDS011;62122;41.112;16.694;2022-07-18T11:08:52;10.30;;;6.40;;
73791;SDS011;62122;41.112;16.694;2022-07-18T11:15:22;9.60;;;6.60;;
73791;SDS011;62122;41.112;16.694;2022-07-18T11:18:26;9.30;;;5.80;;
73791;SDS011;62122;41.112;16.694;2022-07-18T11:21:33;7.90;;;5.82;;
73791;SDS011;62122;41.112;16.694;2022-07-18T11:24:40;7.40;;;5.93;;
73791;SDS011;62122;41.112;16.694;2022-07-18T11:27:45;7.50;;;5.45;;
73791;SDS011;62122;41.112;16.694;2022-07-18T11:31:06;9.90;;;5.63;;
73791;SDS011;62122;41.112;16.694;2022-07-18T11:34:11;9.80;;;5.57;;
73791;SDS011;62122;41.112;16.694;2022-07-18T11:37:15;8.15;;;5.35;;
73791;SDS011;62122;41.112;16.694;2022-07-18T11:40:21;8.68;;;5.55;;
73791;SDS011;62122;41.112;16.694;2022-07-18T11:43:26;9.55;;;5.70;;
73791;SDS011;62122;41.112;16.694;2022-07-18T11:46:30;11.45;;;5.82;;
73791;SDS011;62122;41.112;16.694;2022-07-18T11:49:35;11.47;;;5.63;;
73791;SDS011;62122;41.112;16.694;2022-07-18T11:52:42;9.68;;;6.20;;
73791;SDS011;62122;41.112;16.694;2022-07-18T11:55:46;8.38;;;5.55;;
73791;SDS011;62122;41.112;16.694;2022-07-18T11:58:52;8.18;;;5.80;;
73791;SDS011;62122;41.112;16.694;2022-07-18T12:01:56;10.65;;;5.68;;
73791;SDS011;62122;41.112;16.694;2022-07-18T12:05:01;16.50;;;6.00;;
73791;SDS011;62122;41.112;16.694;2022-07-18T12:11:40;10.20;;;6.05;;
73791;SDS011;62122;41.112;16.694;2022-07-18T12:15:02;8.95;;;5.32;;
73791;SDS011;62122;41.112;16.694;2022-07-18T12:18:27;8.77;;;5.85;;
73791;SDS011;62122;41.112;16.694;2022-07-18T12:24:56;14.25;;;6.80;;
73791;SDS011;62122;41.112;16.694;2022-07-18T12:28:13;8.88;;;6.10;;
73791;SDS011;62122;41.112;16.694;2022-07-18T12:31:36;9.57;;;6.90;;
73791;SDS011;62122;41.112;16.694;2022-07-18T12:35:04;9.75;;;6.22;;
73791;SDS011;62122;41.112;16.694;2022-07-18T12:38:16;9.20;;;6.37;;
73791;SDS011;62122;41.112;16.694;2022-07-18T12:41:27;11.23;;;6.47;;
73791;SDS011;62122;41.112;16.694;2022-07-18T12:44:33;8.50;;;6.00;;
73791;SDS011;62122;41.112;16.694;2022-07-18T12:47:37;8.20;;;6.28;;
73791;SDS011;62122;41.112;16.694;2022-07-18T12:50:42;10.00;;;6.30;;
73791;SDS011;62122;41.112;16.694;2022-07-18T12:53:48;11.03;;;6.70;;
73791;SDS011;62122;41.112;16.694;2022-07-18T12:56:51;8.25;;;6.60;;
73791;SDS011;62122;41.112;16.694;2022-07-18T12:59:56;10.32;;;6.63;;
73791;SDS011;62122;41.112;16.694;2022-07-18T13:02:59;10.13;;;7.05;;
73791;SDS011;62122;41.112;16.694;2022-07-18T13:06:04;9.60;;;6.93;;
73791;SDS011;62122;41.112;16.694;2022-07-18T13:09:07;9.77;;;6.50;;
73791;SDS011;62122;41.112;16.694;2022-07-18T13:12:11;11.32;;;6.90;;
73791;SDS011;62122;41.112;16.694;2022-07-18T13:15:30;8.50;;;6.57;;
73791;SDS011;62122;41.112;16.694;2022-07-18T13:18:41;11.15;;;6.45;;
73791;SDS011;62122;41.112;16.694;2022-07-18T13:21:46;7.82;;;6.10;;
73791;SDS011;62122;41.112;16.694;2022-07-18T13:24:50;9.00;;;6.73;;
73791;SDS011;62122;41.112;16.694;2022-07-18T13:27:59;10.18;;;7.05;;
73791;SDS011;62122;41.112;16.694;2022-07-18T13:31:07;8.13;;;6.90;;
73791;SDS011;62122;41.112;16.694;2022-07-18T13:34:11;10.93;;;7.40;;
73791;SDS011;62122;41.112;16.694;2022-07-18T13:37:15;7.90;;;6.63;;
73791;SDS011;62122;41.112;16.694;2022-07-18T13:40:30;9.77;;;6.90;;
73791;SDS011;62122;41.112;16.694;2022-07-18T13:43:35;9.20;;;7.05;;
73791;SDS011;62122;41.112;16.694;2022-07-18T13:46:44;7.90;;;7.10;;
73791;SDS011;62122;41.112;16.694;2022-07-18T13:49:47;9.00;;;7.40;;
73791;SDS011;62122;41.112;16.694;2022-07-18T13:52:52;9.23;;;7.20;;
73791;SDS011;62122;41.112;16.694;2022-07-18T13:55:56;9.97;;;7.87;;
73791;SDS011;62122;41.112;16.694;2022-07-18T13:59:00;9.70;;;7.72;;
73791;SDS011;62122;41.112;16.694;2022-07-18T14:02:04;10.50;;;7.88;;
73791;SDS011;62122;41.112;16.694;2022-07-18T14:05:08;10.88;;;7.78;;
73791;SDS011;62122;41.112;16.694;2022-07-18T14:08:12;9.55;;;7.72;;
73791;SDS011;62122;41.112;16.694;2022-07-18T14:11:16;9.70;;;7.27;;
73791;SDS011;62122;41.112;16.694;2022-07-18T14:14:21;10.48;;;7.68;;
73791;SDS011;62122;41.112;16.694;2022-07-18T14:17:24;10.25;;;7.63;;
73791;SDS011;62122;41.112;16.694;2022-07-18T14:20:28;9.50;;;7.68;;
73791;SDS011;62122;41.112;16.694;2022-07-18T14:23:32;8.55;;;7.25;;
73791;SDS011;62122;41.112;16.694;2022-07-18T14:26:36;9.67;;;7.03;;
73791;SDS011;62122;41.112;16.694;2022-07-18T14:29:43;9.85;;;7.45;;
73791;SDS011;62122;41.112;16.694;2022-07-18T14:32:46;10.20;;;8.18;;
73791;SDS011;62122;41.112;16.694;2022-07-18T14:35:54;9.40;;;7.13;;
73791;SDS011;62122;41.112;16.694;2022-07-18T14:39:00;9.57;;;7.93;;
73791;SDS011;62122;41.112;16.694;2022-07-18T14:42:04;7.97;;;6.83;;
73791;SDS011;62122;41.112;16.694;2022-07-18T14:45:10;9.07;;;7.50;;
73791;SDS011;62122;41.112;16.694;2022-07-18T14:48:20;8.13;;;7.22;;
73791;SDS011;62122;41.112;16.694;2022-07-18T14:51:25;10.30;;;7.60;;
73791;SDS011;62122;41.112;16.694;2022-07-18T14:54:35;9.77;;;7.70;;
73791;SDS011;62122;41.112;16.694;2022-07-18T14:57:39;8.53;;;7.63;;
73791;SDS011;62122;41.112;16.694;2022-07-18T15:00:43;10.43;;;7.70;;
73791;SDS011;62122;41.112;16.694;2022-07-18T15:03:50;10.48;;;7.57;;
73791;SDS011;62122;41.112;16.694;2022-07-18T15:06:54;9.20;;;7.63;;
73791;SDS011;62122;41.112;16.694;2022-07-18T15:09:58;11.25;;;7.53;;
73791;SDS011;62122;41.112;16.694;2022-07-18T15:13:02;10.47;;;8.77;;
73791;SDS011;62122;41.112;16.694;2022-07-18T15:16:06;8.70;;;7.78;;
73791;SDS011;62122;41.112;16.694;2022-07-18T15:19:09;11.75;;;7.65;;
73791;SDS011;62122;41.112;16.694;2022-07-18T15:22:13;9.65;;;8.18;;
73791;SDS011;62122;41.112;16.694;2022-07-18T15:25:17;9.85;;;8.27;;
73791;SDS011;62122;41.112;16.694;2022-07-18T15:28:23;9.70;;;8.40;;
73791;SDS011;62122;41.112;16.694;2022-07-18T15:31:27;10.60;;;8.80;;
73791;SDS011;62122;41.112;16.694;2022-07-18T15:34:31;8.70;;;7.72;;
73791;SDS011;62122;41.112;16.694;2022-07-18T15:37:35;8.75;;;7.55;;
73791;SDS011;62122;41.112;16.694;2022-07-18T15:40:39;12.05;;;8.48;;
73791;SDS011;62122;41.112;16.694;2022-07-18T15:43:43;10.57;;;7.87;;
73791;SDS011;62122;41.112;16.694;2022-07-18T15:46:47;12.15;;;8.13;;
73791;SDS011;62122;41.112;16.694;2022-07-18T15:49:52;12.07;;;8.65;;
73791;SDS011;62122;41.112;16.694;2022-07-18T15:53:11;11.50;;;8.27;;
73791;SDS011;62122;41.112;16.694;2022-07-18T15:56:34;9.57;;;8.00;;
73791;SDS011;62122;41.112;16.694;2022-07-18T15:59:39;10.43;;;7.97;;
73791;SDS011;62122;41.112;16.694;2022-07-18T16:02:45;9.57;;;8.27;;
73791;SDS011;62122;41.112;16.694;2022-07-18T16:05:49;9.52;;;8.40;;
73791;SDS011;62122;41.112;16.694;2022-07-18T16:08:53;9.77;;;8.35;;
73791;SDS011;62122;41.112;16.694;2022-07-18T16:12:01;10.50;;;8.40;;
73791;SDS011;62122;41.112;16.694;2022-07-18T16:15:05;8.67;;;7.77;;
73791;SDS011;62122;41.112;16.694;2022-07-18T16:18:09;9.13;;;8.13;;
73791;SDS011;62122;41.112;16.694;2022-07-18T16:21:14;11.95;;;9.02;;
73791;SDS011;62122;41.112;16.694;2022-07-18T16:24:17;10.60;;;8.18;;
73791;SDS011;62122;41.112;16.694;2022-07-18T16:27:21;13.07;;;8.48;;
73791;SDS011;62122;41.112;16.694;2022-07-18T16:30:25;11.00;;;7.93;;
73791;SDS011;62122;41.112;16.694;2022-07-18T16:33:30;10.50;;;8.55;;
73791;SDS011;62122;41.112;16.694;2022-07-18T16:36:34;11.65;;;8.45;;
73791;SDS011;62122;41.112;16.694;2022-07-18T16:39:38;12.07;;;8.57;;
73791;SDS011;62122;41.112;16.694;2022-07-18T16:42:42;11.07;;;8.88;;
73791;SDS011;62122;41.112;16.694;2022-07-18T16:45:48;10.97;;;9.07;;
73791;SDS011;62122;41.112;16.694;2022-07-18T16:48:56;12.43;;;8.57;;
73791;SDS011;62122;41.112;16.694;2022-07-18T16:52:00;11.45;;;9.48;;
73791;SDS011;62122;41.112;16.694;2022-07-18T16:55:20;10.85;;;8.88;;
73791;SDS011;62122;41.112;16.694;2022-07-18T16:58:24;10.05;;;8.80;;
73791;SDS011;62122;41.112;16.694;2022-07-18T17:01:31;10.00;;;8.87;;
73791;SDS011;62122;41.112;16.694;2022-07-18T17:04:42;12.88;;;8.73;;
73791;SDS011;62122;41.112;16.694;2022-07-18T17:07:51;11.57;;;9.00;;
73791;SDS011;62122;41.112;16.694;2022-07-18T17:10:57;9.82;;;8.73;;
73791;SDS011;62122;41.112;16.694;2022-07-18T17:14:02;14.25;;;8.30;;
73791;SDS011;62122;41.112;16.694;2022-07-18T17:17:07;10.47;;;8.10;;
73791;SDS011;62122;41.112;16.694;2022-07-18T17:20:11;12.23;;;8.30;;
73791;SDS011;62122;41.112;16.694;2022-07-18T17:23:17;9.75;;;7.97;;
73791;SDS011;62122;41.112;16.694;2022-07-18T17:26:21;9.60;;;8.10;;
73791;SDS011;62122;41.112;16.694;2022-07-18T17:29:26;9.95;;;7.80;;
73791;SDS011;62122;41.112;16.694;2022-07-18T17:32:30;10.13;;;7.97;;
73791;SDS011;62122;41.112;16.694;2022-07-18T17:35:36;10.77;;;7.50;;
73791;SDS011;62122;41.112;16.694;2022-07-18T17:38:40;10.52;;;8.00;;
73791;SDS011;62122;41.112;16.694;2022-07-18T17:41:47;10.57;;;7.80;;
73791;SDS011;62122;41.112;16.694;2022-07-18T17:44:51;10.32;;;7.50;;
73791;SDS011;62122;41.112;16.694;2022-07-18T17:47:58;10.77;;;8.40;;
73791;SDS011;62122;41.112;16.694;2022-07-18T17:51:03;9.35;;;7.75;;
73791;SDS011;62122;41.112;16.694;2022-07-18T17:54:08;10.35;;;7.90;;
73791;SDS011;62122;41.112;16.694;2022-07-18T17:57:14;10.85;;;7.85;;
73791;SDS011;62122;41.112;16.694;2022-07-18T18:00:18;11.18;;;7.82;;
73791;SDS011;62122;41.112;16.694;2022-07-18T18:03:23;9.90;;;7.63;;
73791;SDS011;62122;41.112;16.694;2022-07-18T18:06:27;10.90;;;7.70;;
73791;SDS011;62122;41.112;16.694;2022-07-18T18:09:33;11.35;;;7.22;;
73791;SDS011;62122;41.112;16.694;2022-07-18T18:12:38;9.85;;;7.68;;
73791;SDS011;62122;41.112;16.694;2022-07-18T18:15:42;11.32;;;8.05;;
73791;SDS011;62122;41.112;16.694;2022-07-18T18:18:46;11.95;;;8.02;;
73791;SDS011;62122;41.112;16.694;2022-07-18T18:21:50;12.00;;;8.20;;
73791;SDS011;62122;41.112;16.694;2022-07-18T18:24:54;15.18;;;8.90;;
73791;SDS011;62122;41.112;16.694;2022-07-18T18:27:58;15.98;;;8.75;;
73791;SDS011;62122;41.112;16.694;2022-07-18T18:31:04;12.15;;;9.00;;
73791;SDS011;62122;41.112;16.694;2022-07-18T18:34:07;13.98;;;8.52;;
73791;SDS011;62122;41.112;16.694;2022-07-18T18:37:11;11.48;;;8.07;;
73791;SDS011;62122;41.112;16.694;2022-07-18T18:40:16;15.02;;;8.20;;
73791;SDS011;62122;41.112;16.694;2022-07-18T18:43:20;13.90;;;8.93;;
73791;SDS011;62122;41.112;16.694;2022-07-18T18:46:25;15.15;;;7.55;;
73791;SDS011;62122;41.112;16.694;2022-07-18T18:49:40;11.90;;;8.18;;
73791;SDS011;62122;41.112;16.694;2022-07-18T18:52:44;16.38;;;7.70;;
73791;SDS011;62122;41.112;16.694;2022-07-18T18:55:48;10.45;;;7.75;;
73791;SDS011;62122;41.112;16.694;2022-07-18T18:58:51;11.43;;;7.82;;
73791;SDS011;62122;41.112;16.694;2022-07-18T19:01:55;11.68;;;7.95;;
73791;SDS011;62122;41.112;16.694;2022-07-18T19:04:59;9.97;;;7.17;;
73791;SDS011;62122;41.112;16.694;2022-07-18T19:08:03;10.88;;;6.88;;
73791;SDS011;62122;41.112;16.694;2022-07-18T19:11:08;12.40;;;7.70;;
73791;SDS011;62122;41.112;16.694;2022-07-18T19:14:13;11.50;;;7.55;;
73791;SDS011;62122;41.112;16.694;2022-07-18T19:17:17;11.68;;;8.18;;
73791;SDS011;62122;41.112;16.694;2022-07-18T20:02:15;13.65;;;8.75;;
73791;SDS011;62122;41.112;16.694;2022-07-18T20:05:29;14.75;;;8.80;;
73791;SDS011;62122;41.112;16.694;2022-07-18T20:08:37;11.20;;;8.63;;
73791;SDS011;62122;41.112;16.694;2022-07-18T20:11:42;11.68;;;8.85;;
73791;SDS011;62122;41.112;16.694;2022-07-18T20:14:46;13.23;;;9.23;;
73791;SDS011;62122;41.112;16.694;2022-07-18T20:17:49;16.48;;;9.10;;
73791;SDS011;62122;41.112;16.694;2022-07-18T20:20:53;14.13;;;8.63;;
73791;SDS011;62122;41.112;16.694;2022-07-18T20:23:57;11.68;;;7.85;;
73791;SDS011;62122;41.112;16.694;2022-07-18T20:27:04;12.68;;;8.18;;
73791;SDS011;62122;41.112;16.694;2022-07-18T20:30:22;11.60;;;8.25;;
73791;SDS011;62122;41.112;16.694;2022-07-18T20:33:26;12.73;;;7.80;;
73791;SDS011;62122;41.112;16.694;2022-07-18T20:36:30;11.23;;;7.65;;
73791;SDS011;62122;41.112;16.694;2022-07-18T20:39:37;10.83;;;7.47;;
73791;SDS011;62122;41.112;16.694;2022-07-18T20:42:42;11.80;;;8.45;;
73791;SDS011;62122;41.112;16.694;2022-07-18T20:45:46;11.07;;;7.70;;
73791;SDS011;62122;41.112;16.694;2022-07-18T20:48:50;11.77;;;7.97;;
73791;SDS011;62122;41.112;16.694;2022-07-18T20:51:54;11.63;;;7.68;;
73791;SDS011;62122;41.112;16.694;2022-07-18T20:54:58;11.57;;;8.10;;
73791;SDS011;62122;41.112;16.694;2022-07-18T20:58:03;11.18;;;7.97;;
73791;SDS011;62122;41.112;16.694;2022-07-18T21:01:12;11.88;;;7.80;;
73791;SDS011;62122;41.112;16.694;2022-07-18T21:04:16;14.52;;;8.75;;
73791;SDS011;62122;41.112;16.694;2022-07-18T21:07:24;13.90;;;8.68;;
73791;SDS011;62122;41.112;16.694;2022-07-18T21:10:28;13.55;;;8.38;;
73791;SDS011;62122;41.112;16.694;2022-07-18T21:13:33;18.77;;;8.75;;
73791;SDS011;62122;41.112;16.694;2022-07-18T21:16:38;14.45;;;8.77;;
73791;SDS011;62122;41.112;16.694;2022-07-18T21:19:41;15.95;;;9.38;;
73791;SDS011;62122;41.112;16.694;2022-07-18T21:22:48;15.63;;;9.60;;
73791;SDS011;62122;41.112;16.694;2022-07-18T21:26:00;16.60;;;10.13;;
73791;SDS011;62122;41.112;16.694;2022-07-18T21:29:07;13.80;;;9.73;;
73791;SDS011;62122;41.112;16.694;2022-07-18T21:32:22;15.18;;;9.10;;
73791;SDS011;62122;41.112;16.694;2022-07-18T21:35:27;13.40;;;8.65;;
73791;SDS011;62122;41.112;16.694;2022-07-18T21:38:37;12.98;;;9.02;;